Time;durP1;ratioP1;P1;durP2;ratioP2;P2;SDS_P1;SDS_P2;PMS_P1;PMS_P2;Temp;Humidity;BMP_temperature;BMP_pressure;BME280_temperature;BME280_humidity;BME280_pressure;Samples;Min_cycle;Max_cycle;Signal;HPM_P1;HPM_P2
2021/06/17 00:01:40;;;;;;;6.20;2.87;;;;;;;19.61;55.46;100610.66;1763613;79;20982;-79
2021/06/17 00:04:05;;;;;;;9.05;3.40;;;;;;;19.57;55.69;100617.45;1756864;79;21769;-79
2021/06/17 00:06:31;;;;;;;7.08;3.30;;;;;;;19.55;56.00;100614.16;1761203;79;20889;-79
2021/06/17 00:08:57;;;;;;;7.45;3.47;;;;;;;19.50;55.92;100611.27;1746976;79;20905;-79
2021/06/17 00:11:23;;;;;;;6.20;3.20;;;;;;;19.48;55.84;100611.97;1750983;80;20955;-79
2021/06/17 00:13:48;;;;;;;7.05;3.20;;;;;;;19.53;55.66;100612.21;1758761;80;20955;-79
2021/06/17 00:16:14;;;;;;;7.30;3.33;;;;;;;19.46;55.83;100616.19;1756010;81;21182;-79
2021/06/17 00:18:41;;;;;;;5.78;3.20;;;;;;;19.44;56.21;100618.27;1801384;78;21771;-79
2021/06/17 00:21:07;;;;;;;6.97;3.12;;;;;;;19.36;56.68;100619.27;1819335;76;20986;-80
2021/06/17 00:23:33;;;;;;;6.20;3.20;;;;;;;19.40;56.16;100622.88;1807217;78;21382;-80
2021/06/17 00:25:59;;;;;;;6.42;3.20;;;;;;;19.41;56.83;100613.83;1821211;78;21144;-80
2021/06/17 00:28:25;;;;;;;8.75;3.50;;;;;;;19.35;57.11;100618.95;1817928;78;21098;-80
2021/06/17 00:30:52;;;;;;;7.58;3.27;;;;;;;19.31;57.07;100625.76;1817833;78;21136;-80
2021/06/17 00:33:18;;;;;;;4.90;2.92;;;;;;;19.31;57.34;100621.74;1821585;76;21062;-79
2021/06/17 00:35:44;;;;;;;8.48;3.30;;;;;;;19.26;57.08;100629.53;1789117;78;21412;-79
2021/06/17 00:38:10;;;;;;;7.65;3.50;;;;;;;19.16;57.37;100631.27;1744426;79;21103;-80
2021/06/17 00:40:36;;;;;;;9.78;3.25;;;;;;;19.12;57.71;100631.34;1731097;81;20891;-79
2021/06/17 00:43:02;;;;;;;7.05;3.45;;;;;;;19.08;57.89;100631.95;1739718;81;21077;-79
2021/06/17 00:45:36;;;;;;;6.37;3.30;;;;;;;19.08;57.45;100630.11;1743158;82;21555;-79
2021/06/17 00:48:02;;;;;;;8.90;3.35;;;;;;;19.09;57.30;100621.03;1743249;81;21027;-79
2021/06/17 00:50:37;;;;;;;7.07;3.43;;;;;;;19.04;57.58;100626.70;1739747;82;21662;-80
2021/06/17 00:53:09;;;;;;;6.85;3.52;;;;;;;19.09;57.39;100623.71;1723941;82;21291;-80
2021/06/17 00:55:41;;;;;;;6.05;3.22;;;;;;;19.03;58.21;100621.02;1731575;82;21061;-80
2021/06/17 00:58:07;;;;;;;11.15;3.25;;;;;;;18.99;58.14;100622.76;1746586;80;21380;-79
2021/06/17 01:00:33;;;;;;;6.75;3.77;;;;;;;18.91;58.49;100617.59;1734785;82;21597;-79
2021/06/17 01:03:00;;;;;;;6.35;3.10;;;;;;;18.87;58.15;100624.88;1727779;82;21004;-79
2021/06/17 01:05:26;;;;;;;8.38;3.27;;;;;;;18.84;58.24;100627.39;1719757;82;21030;-79
2021/06/17 01:08:20;;;;;;;9.53;3.40;;;;;;;18.80;58.10;100624.83;1725909;82;21013;-79
2021/06/17 01:11:12;;;;;;;9.33;3.17;;;;;;;18.89;57.73;100630.84;1740201;81;21207;-79
2021/06/17 01:13:52;;;;;;;9.50;3.20;;;;;;;18.80;57.84;100635.53;1754241;80;21178;-78
2021/06/17 01:16:38;;;;;;;8.08;3.00;;;;;;;18.78;58.03;100628.19;1739124;81;21022;-79
2021/06/17 01:19:28;;;;;;;6.45;3.02;;;;;;;18.86;57.89;100628.05;1742046;81;21185;-79
2021/06/17 01:22:29;;;;;;;6.37;2.98;;;;;;;18.89;57.68;100630.33;1719041;81;21120;-79
2021/06/17 01:25:20;;;;;;;6.65;3.27;;;;;;;18.83;57.88;100624.39;1749717;81;21362;-78
2021/06/17 01:28:13;;;;;;;6.33;2.90;;;;;;;18.77;57.83;100625.22;1730559;81;21382;-79
2021/06/17 01:30:49;;;;;;;5.87;3.02;;;;;;;18.79;57.81;100627.17;1752929;80;21062;-79
2021/06/17 01:33:15;;;;;;;8.93;3.15;;;;;;;18.80;57.79;100628.31;1792141;77;21113;-79
2021/06/17 01:35:44;;;;;;;6.05;3.00;;;;;;;18.84;57.55;100618.03;1784935;78;22120;-80
2021/06/17 01:38:13;;;;;;;6.62;3.22;;;;;;;18.87;57.68;100620.34;1821694;78;20997;-79
2021/06/17 01:40:38;;;;;;;7.92;3.35;;;;;;;18.81;57.94;100613.08;1785703;78;21025;-80
2021/06/17 01:43:04;;;;;;;8.23;3.35;;;;;;;18.84;57.75;100617.54;1814225;78;21643;-80
2021/06/17 01:45:30;;;;;;;8.53;3.22;;;;;;;18.86;57.68;100618.68;1774766;78;21900;-80
2021/06/17 01:47:56;;;;;;;7.28;3.05;;;;;;;18.89;57.73;100616.13;1817851;76;20894;-79
2021/06/17 01:50:24;;;;;;;9.15;3.20;;;;;;;18.92;57.57;100621.08;1818441;76;20929;-80
2021/06/17 01:52:51;;;;;;;6.00;3.45;;;;;;;18.75;57.91;100621.90;1788462;78;21049;-80
2021/06/17 01:55:17;;;;;;;10.85;3.08;;;;;;;18.62;58.34;100618.12;1777546;78;21035;-80
2021/06/17 01:57:43;;;;;;;6.47;3.27;;;;;;;18.57;58.52;100623.25;1772556;79;21136;-79
2021/06/17 02:00:10;;;;;;;5.65;3.20;;;;;;;18.57;58.63;100625.93;1740817;81;21021;-79
2021/06/17 02:02:36;;;;;;;5.45;3.10;;;;;;;18.64;58.42;100621.45;1745387;80;21082;-79
2021/06/17 02:05:03;;;;;;;5.65;3.17;;;;;;;18.65;58.38;100620.41;1778642;78;20982;-79
2021/06/17 02:07:29;;;;;;;9.88;3.55;;;;;;;18.59;58.86;100617.70;1813214;78;21023;-79
2021/06/17 02:09:55;;;;;;;7.87;3.33;;;;;;;18.51;58.94;100616.54;1813969;78;21043;-79
2021/06/17 02:12:20;;;;;;;6.40;3.12;;;;;;;18.40;59.35;100622.73;1814039;78;21063;-79
2021/06/17 02:14:48;;;;;;;5.78;3.08;;;;;;;18.30;59.84;100620.42;1814728;76;20875;-79
2021/06/17 02:17:15;;;;;;;7.58;3.35;;;;;;;18.38;59.51;100618.59;1808467;78;21027;-79
2021/06/17 02:19:41;;;;;;;6.87;3.30;;;;;;;18.37;59.55;100614.30;1765682;80;21107;-79
2021/06/17 02:22:07;;;;;;;8.93;3.40;;;;;;;18.32;60.03;100620.72;1754905;80;21010;-79
2021/06/17 02:24:39;;;;;;;6.83;3.52;;;;;;;18.26;60.51;100620.48;1744540;79;21349;-79
2021/06/17 02:27:11;;;;;;;7.47;3.80;;;;;;;18.29;60.57;100625.45;1766017;80;21754;-78
2021/06/17 02:29:47;;;;;;;10.13;3.92;;;;;;;18.30;60.69;100616.91;1791966;77;20948;-79
2021/06/17 02:32:16;;;;;;;7.90;3.35;;;;;;;18.36;60.64;100631.34;1791401;77;21031;-78
2021/06/17 02:34:42;;;;;;;6.15;3.67;;;;;;;18.27;60.94;100623.48;1750596;79;21115;-79
2021/06/17 02:37:08;;;;;;;6.55;3.40;;;;;;;18.19;61.02;100623.61;1746245;79;21080;-79
2021/06/17 02:39:34;;;;;;;8.05;3.80;;;;;;;18.20;61.12;100618.59;1746051;79;20922;-79
2021/06/17 02:42:00;;;;;;;7.45;3.58;;;;;;;18.19;61.31;100618.27;1763047;79;21334;-79
2021/06/17 02:44:27;;;;;;;6.17;3.58;;;;;;;18.19;61.47;100615.59;1756871;79;21357;-80
2021/06/17 02:46:53;;;;;;;8.78;3.65;;;;;;;18.18;61.33;100621.98;1760592;79;21053;-81
2021/06/17 02:49:20;;;;;;;8.18;3.75;;;;;;;18.17;61.38;100618.98;1756522;78;21352;-80
2021/06/17 02:51:46;;;;;;;8.27;3.50;;;;;;;18.10;61.62;100619.44;1809739;78;21069;-80
2021/06/17 02:54:12;;;;;;;7.20;3.40;;;;;;;18.12;61.98;100614.74;1804056;78;20859;-80
2021/06/17 02:57:04;;;;;;;6.75;3.52;;;;;;;18.12;62.63;100620.09;1817540;78;21034;-80
2021/06/17 03:00:01;;;;;;;12.37;3.98;;;;;;;18.08;62.74;100621.48;1810920;78;21154;-79
2021/06/17 03:02:35;;;;;;;7.42;3.50;;;;;;;18.18;62.79;100627.33;1755511;80;21139;-79
2021/06/17 03:05:22;;;;;;;9.50;4.08;;;;;;;18.23;62.75;100626.22;1748314;79;20932;-78
2021/06/17 03:07:54;;;;;;;9.78;3.40;;;;;;;18.27;62.53;100627.50;1757050;80;21039;-79
2021/06/17 03:10:20;;;;;;;9.98;3.85;;;;;;;18.31;62.59;100633.27;1765767;80;21025;-79
2021/06/17 03:12:46;;;;;;;9.23;3.67;;;;;;;18.40;62.50;100629.95;1764389;78;21082;-80
2021/06/17 03:15:12;;;;;;;7.50;3.50;;;;;;;18.42;62.60;100628.71;1694515;80;21627;-80
2021/06/17 03:17:42;;;;;;;9.88;3.62;;;;;;;18.39;62.75;100626.95;1739935;80;21181;-77
2021/06/17 03:20:08;;;;;;;8.30;3.35;;;;;;;18.46;62.56;100631.84;1742528;79;21054;-78
2021/06/17 03:22:36;;;;;;;9.65;3.83;;;;;;;18.52;62.59;100638.23;1761077;80;21521;-78
2021/06/17 03:25:07;;;;;;;7.90;3.65;;;;;;;18.52;62.64;100643.58;1758545;79;21748;-78
2021/06/17 03:27:33;;;;;;;8.58;3.52;;;;;;;18.57;62.38;100641.16;1745754;79;21074;-78
2021/06/17 03:29:59;;;;;;;8.95;3.98;;;;;;;18.55;62.39;100645.38;1774450;79;21010;-78
2021/06/17 03:32:26;;;;;;;8.13;3.33;;;;;;;18.55;62.11;100642.70;1763757;77;20965;-78
2021/06/17 03:34:52;;;;;;;8.98;3.80;;;;;;;18.56;62.13;100642.98;1760326;78;21017;-78
2021/06/17 03:37:20;;;;;;;8.05;3.83;;;;;;;18.51;62.22;100641.42;1766952;78;21572;-77
2021/06/17 03:39:46;;;;;;;7.78;3.50;;;;;;;18.55;62.01;100648.05;1769487;79;21018;-77
2021/06/17 03:42:12;;;;;;;7.95;3.90;;;;;;;18.59;61.56;100648.47;1736987;80;20907;-78
2021/06/17 03:44:38;;;;;;;7.45;3.98;;;;;;;18.61;61.61;100645.92;1765360;79;20891;-78
2021/06/17 03:47:04;;;;;;;10.73;3.67;;;;;;;18.69;62.23;100648.11;1751827;78;21055;-77
2021/06/17 03:49:30;;;;;;;10.60;3.83;;;;;;;18.73;61.54;100651.52;1771020;78;21991;-78
2021/06/17 03:52:02;;;;;;;7.60;3.35;;;;;;;18.73;61.54;100651.52;1781149;79;20936;-80
2021/06/17 03:54:28;;;;;;;11.40;3.90;;;;;;;18.74;61.84;100655.05;1765298;78;21068;-76
2021/06/17 03:56:57;;;;;;;8.10;3.40;;;;;;;18.80;61.51;100643.55;1770579;78;21952;-77
2021/06/17 03:59:25;;;;;;;6.92;3.20;;;;;;;18.89;61.29;100644.23;1756770;78;21582;-78
2021/06/17 04:01:51;;;;;;;9.35;3.70;;;;;;;18.83;61.60;100645.80;1750985;78;21238;-77
2021/06/17 04:04:17;;;;;;;7.03;3.55;;;;;;;18.90;61.53;100646.70;1746358;78;21008;-77
2021/06/17 04:06:53;;;;;;;9.07;3.50;;;;;;;18.99;61.34;100657.55;1758662;78;21053;-77
2021/06/17 04:09:27;;;;;;;6.42;3.50;;;;;;;18.99;61.27;100655.41;1746050;78;20964;-77
2021/06/17 04:11:53;;;;;;;8.03;3.60;;;;;;;19.09;60.95;100651.00;1750227;79;21015;-77
2021/06/17 04:14:19;;;;;;;9.58;3.85;;;;;;;19.15;60.63;100661.73;1752760;79;21095;-78
2021/06/17 04:16:45;;;;;;;9.58;3.90;;;;;;;19.25;60.78;100658.70;1760167;80;20894;-78
2021/06/17 04:19:11;;;;;;;11.03;4.10;;;;;;;19.34;60.43;100661.52;1759802;81;20925;-77
2021/06/17 04:21:37;;;;;;;11.65;4.20;;;;;;;19.48;59.28;100666.88;1760022;81;21235;-78
2021/06/17 04:24:05;;;;;;;6.42;3.52;;;;;;;19.48;59.46;100665.05;1700684;81;20890;-78
2021/06/17 04:26:31;;;;;;;7.87;3.52;;;;;;;19.60;58.98;100659.09;1760018;81;21253;-78
2021/06/17 04:28:57;;;;;;;8.80;3.40;;;;;;;19.65;58.51;100660.11;1751903;77;21022;-77
2021/06/17 04:31:23;;;;;;;11.75;3.85;;;;;;;19.65;58.16;100666.00;1725290;80;21676;-79
2021/06/17 04:33:49;;;;;;;7.17;3.52;;;;;;;19.64;57.96;100665.18;1724996;81;21870;-77
2021/06/17 04:36:15;;;;;;;12.68;3.95;;;;;;;19.74;57.73;100662.91;1747717;79;20956;-77
2021/06/17 04:38:40;;;;;;;10.32;3.77;;;;;;;19.80;57.83;100663.17;1765940;79;22003;-79
2021/06/17 04:41:07;;;;;;;7.85;3.80;;;;;;;19.93;56.84;100655.13;1765040;79;21098;-78
2021/06/17 04:43:36;;;;;;;10.38;3.62;;;;;;;19.93;56.84;100655.13;1746688;79;21758;-77
2021/06/17 04:46:02;;;;;;;9.05;3.75;;;;;;;19.93;56.45;100655.13;1758303;80;20994;-78
2021/06/17 04:48:29;;;;;;;8.08;3.30;;;;;;;19.96;55.98;100661.42;1751061;79;20928;-78
2021/06/17 04:50:55;;;;;;;10.35;3.87;;;;;;;20.00;56.22;100659.17;1764629;78;21329;-79
2021/06/17 04:53:21;;;;;;;22.98;7.37;;;;;;;20.08;56.15;100654.41;1753122;79;21092;-79
2021/06/17 04:55:54;;;;;;;22.02;6.75;;;;;;;20.18;55.99;100659.38;1811908;76;20964;-77
2021/06/17 04:58:21;;;;;;;12.70;4.80;;;;;;;20.24;55.46;100655.02;1817538;76;21248;-80
2021/06/17 05:00:47;;;;;;;14.23;4.33;;;;;;;20.30;55.30;100656.06;1812956;76;21058;-79
2021/06/17 05:03:14;;;;;;;19.98;5.85;;;;;;;20.37;55.37;100656.36;1811909;78;21100;-79
2021/06/17 05:05:39;;;;;;;18.13;5.30;;;;;;;20.45;55.37;100660.16;1814498;78;20998;-80
2021/06/17 05:10:55;;;;;;;18.87;5.47;;;;;;;20.57;55.10;100651.46;1785383;78;21077;-79
2021/06/17 05:13:30;;;;;;;13.48;4.10;;;;;;;20.67;55.07;100651.89;1765462;77;21485;-79
2021/06/17 05:15:59;;;;;;;22.10;6.30;;;;;;;20.74;55.08;100656.73;1754540;79;21106;-79
2021/06/17 05:18:27;;;;;;;21.73;5.90;;;;;;;20.86;55.24;100650.17;1767433;79;21104;-78
2021/06/17 05:20:52;;;;;;;16.25;5.22;;;;;;;20.83;55.45;100657.84;1759243;79;21257;-79
2021/06/17 05:23:21;;;;;;;13.78;4.53;;;;;;;20.92;55.65;100662.75;1764491;79;20961;-77
2021/06/17 05:25:47;;;;;;;9.63;3.65;;;;;;;21.00;55.47;100660.34;1760956;79;21276;-81
2021/06/17 05:28:14;;;;;;;9.88;3.95;;;;;;;21.07;55.51;100662.50;1780510;79;21066;-80
2021/06/17 05:30:43;;;;;;;13.18;3.67;;;;;;;21.19;55.37;100661.82;1765402;79;21112;-82
2021/06/17 05:33:09;;;;;;;8.58;3.45;;;;;;;21.25;55.46;100663.66;1748382;79;21606;-78
2021/06/17 05:35:35;;;;;;;8.08;3.50;;;;;;;21.30;55.72;100659.80;1777331;79;21010;-79
2021/06/17 05:38:02;;;;;;;10.78;3.20;;;;;;;21.34;55.09;100660.50;1773172;79;21584;-80
2021/06/17 05:40:28;;;;;;;9.73;2.90;;;;;;;21.42;55.17;100662.11;1753690;80;21177;-81
2021/06/17 05:42:53;;;;;;;15.30;3.27;;;;;;;21.45;55.17;100664.36;1754810;79;21030;-84
2021/06/17 05:45:19;;;;;;;11.70;3.08;;;;;;;21.57;55.16;100671.80;1769094;79;22185;-86
2021/06/17 05:47:45;;;;;;;6.08;2.40;;;;;;;21.63;54.56;100673.09;1766262;79;20870;-82
2021/06/17 05:50:11;;;;;;;5.75;2.50;;;;;;;21.64;53.85;100673.90;1757623;77;20908;-83
2021/06/17 05:52:37;;;;;;;4.90;2.50;;;;;;;21.74;53.95;100671.57;1752845;79;21300;-87
2021/06/17 05:55:04;;;;;;;4.47;2.30;;;;;;;21.82;53.10;100672.64;1762859;80;20896;-83
2021/06/17 05:57:30;;;;;;;8.38;2.70;;;;;;;21.97;52.71;100679.56;1759938;80;26021;-82
2021/06/17 05:59:56;;;;;;;6.70;2.75;;;;;;;22.13;52.58;100680.38;1764879;80;21624;-84
2021/06/17 06:02:23;;;;;;;7.90;2.92;;;;;;;22.29;51.95;100680.86;1766344;81;20967;-84
2021/06/17 06:04:52;;;;;;;7.47;2.40;;;;;;;22.29;51.95;100680.86;1763581;80;21003;-85
2021/06/17 06:07:18;;;;;;;5.67;2.30;;;;;;;22.37;51.78;100692.71;1754161;81;21084;-86
2021/06/17 06:09:44;;;;;;;5.85;2.47;;;;;;;22.40;51.61;100697.66;1761704;80;21211;-86
2021/06/17 06:12:11;;;;;;;7.37;2.52;;;;;;;22.39;51.71;100699.53;1749485;78;20937;-87
2021/06/17 06:14:37;;;;;;;9.13;2.67;;;;;;;22.42;51.83;100703.66;1759622;79;21060;-84
2021/06/17 06:17:04;;;;;;;8.17;2.57;;;;;;;22.45;51.58;100701.87;1755615;78;21022;-88
2021/06/17 06:19:31;;;;;;;6.03;2.22;;;;;;;22.53;51.85;100696.20;1753908;78;21023;-83
2021/06/17 06:21:57;;;;;;;8.43;2.40;;;;;;;22.61;51.93;100693.73;1758892;78;28232;-86
2021/06/17 06:24:23;;;;;;;6.03;2.50;;;;;;;22.65;52.01;100699.48;1729938;81;21645;-87
2021/06/17 06:26:49;;;;;;;8.05;2.72;;;;;;;22.72;51.92;100699.72;1732712;81;20904;-93
2021/06/17 06:29:15;;;;;;;5.77;2.50;;;;;;;22.77;51.69;100703.09;1738547;81;27478;-87
2021/06/17 06:31:42;;;;;;;4.20;2.40;;;;;;;22.82;51.78;100708.63;1729114;81;21225;-91
2021/06/17 06:34:07;;;;;;;6.37;2.62;;;;;;;22.86;51.87;100712.52;1731379;79;28366;-89
2021/06/17 06:36:33;;;;;;;8.08;2.62;;;;;;;22.93;51.88;100712.44;1777806;80;20922;-86
2021/06/17 06:39:00;;;;;;;10.72;2.47;;;;;;;22.99;51.81;100717.47;1765966;80;21059;-88
2021/06/17 06:41:25;;;;;;;7.67;2.47;;;;;;;23.07;51.79;100721.20;1760867;80;21318;-89
2021/06/17 06:43:51;;;;;;;4.72;2.30;;;;;;;23.18;51.86;100725.88;1759705;80;20900;-87
2021/06/17 06:46:17;;;;;;;5.62;2.20;;;;;;;23.23;51.80;100721.16;1759985;80;21948;-90
2021/06/17 06:48:43;;;;;;;5.08;2.37;;;;;;;23.28;51.53;100726.16;1757404;80;20994;-90
2021/06/17 06:51:08;;;;;;;6.78;2.30;;;;;;;23.37;51.30;100723.14;1802740;78;21947;-87
2021/06/17 06:53:34;;;;;;;4.30;2.33;;;;;;;23.39;50.30;100739.92;1819803;78;21884;-86
2021/06/17 06:56:00;;;;;;;5.95;2.37;;;;;;;23.48;50.35;100737.22;1815057;76;20963;-85
2021/06/17 06:58:26;;;;;;;7.15;2.22;;;;;;;23.50;50.04;100736.45;1819407;78;20882;-86
2021/06/17 07:00:53;;;;;;;7.87;2.27;;;;;;;23.63;49.84;100738.98;1818725;77;20888;-87
2021/06/17 07:03:19;;;;;;;4.97;2.15;;;;;;;23.69;48.67;100741.81;1819082;76;20977;-86
2021/06/17 07:05:45;;;;;;;5.90;2.27;;;;;;;23.73;48.41;100741.66;1804577;76;21135;-85
2021/06/17 07:08:10;;;;;;;8.88;2.70;;;;;;;23.78;48.33;100744.48;1775106;80;20855;-92
2021/06/17 07:10:40;;;;;;;6.87;2.12;;;;;;;23.79;47.44;100742.09;1773596;79;20995;-86
2021/06/17 07:13:06;;;;;;;6.40;1.95;;;;;;;23.88;46.40;100746.64;1765699;78;21572;-86
2021/06/17 07:15:32;;;;;;;4.60;2.00;;;;;;;23.96;46.00;100741.75;1753993;79;20998;-84
2021/06/17 07:17:57;;;;;;;5.42;2.02;;;;;;;24.00;44.71;100748.34;1774038;79;21854;-85
2021/06/17 07:20:23;;;;;;;7.03;2.15;;;;;;;24.08;44.52;100754.45;1771926;79;20959;-88
2021/06/17 07:22:54;;;;;;;6.37;2.10;;;;;;;24.18;44.13;100752.02;1768043;78;21048;-88
2021/06/17 07:25:16;;;;;;;6.47;2.08;;;;;;;24.28;43.81;100757.64;1760654;79;21012;-85
2021/06/17 07:27:42;;;;;;;4.92;2.05;;;;;;;24.36;43.75;100757.83;1762084;79;21027;-87
2021/06/17 07:30:09;;;;;;;5.87;2.10;;;;;;;24.49;43.64;100758.16;1759188;80;21154;-85
2021/06/17 07:32:35;;;;;;;5.08;2.10;;;;;;;24.58;43.92;100763.54;1760880;81;21039;-85
2021/06/17 07:35:01;;;;;;;3.62;1.98;;;;;;;24.66;44.03;100763.18;1766282;81;20892;-83
2021/06/17 07:37:27;;;;;;;8.08;2.00;;;;;;;24.73;43.55;100757.66;1766460;79;21052;-81
2021/06/17 07:39:53;;;;;;;5.65;2.08;;;;;;;24.76;41.81;100752.31;1769107;79;20889;-84
2021/06/17 07:42:18;;;;;;;5.35;1.95;;;;;;;24.80;42.74;100745.39;1768373;79;21150;-82
2021/06/17 07:44:46;;;;;;;5.33;1.92;;;;;;;24.91;43.06;100744.55;1752585;79;20956;-87
2021/06/17 07:47:12;;;;;;;4.05;1.98;;;;;;;25.00;43.31;100750.39;1760617;79;21037;-83
2021/06/17 07:49:38;;;;;;;7.60;2.17;;;;;;;25.08;42.86;100746.00;1760218;79;21000;-84
2021/06/17 07:52:04;;;;;;;5.47;2.00;;;;;;;25.15;42.83;100740.45;1755284;79;20984;-87
2021/06/17 07:54:30;;;;;;;6.55;2.22;;;;;;;25.24;42.68;100747.12;1757732;81;21653;-83
2021/06/17 07:56:57;;;;;;;4.87;2.08;;;;;;;25.33;42.33;100748.42;1787178;76;20879;-82
2021/06/17 07:59:23;;;;;;;3.75;1.90;;;;;;;25.41;42.10;100741.28;1817372;78;21058;-83
2021/06/17 08:01:50;;;;;;;4.53;1.93;;;;;;;25.35;42.06;100740.88;1815261;78;21080;-82
2021/06/17 08:04:17;;;;;;;4.72;2.10;;;;;;;25.41;42.67;100745.33;1810800;76;21457;-85
2021/06/17 08:06:44;;;;;;;4.00;1.90;;;;;;;25.53;42.69;100747.20;1818080;76;21019;-84
2021/06/17 08:09:09;;;;;;;5.20;2.00;;;;;;;25.59;42.76;100747.04;1816992;78;20998;-85
2021/06/17 08:11:37;;;;;;;3.98;1.82;;;;;;;25.62;42.92;100743.86;1819891;76;21937;-85
2021/06/17 08:14:03;;;;;;;7.00;2.20;;;;;;;25.61;43.16;100741.39;1814118;78;20953;-82
2021/06/17 08:16:28;;;;;;;7.17;2.10;;;;;;;25.66;42.94;100736.06;1810769;76;20898;-83
2021/06/17 08:18:55;;;;;;;6.22;1.98;;;;;;;25.66;42.35;100736.06;1753065;79;21072;-85
2021/06/17 08:21:22;;;;;;;3.57;1.73;;;;;;;25.66;41.82;100738.77;1746679;79;21185;-83
2021/06/17 08:23:47;;;;;;;4.95;2.10;;;;;;;25.73;41.92;100740.81;1763747;77;21124;-81
2021/06/17 08:26:13;;;;;;;5.35;1.98;;;;;;;25.70;42.34;100737.23;1810400;78;20969;-83
2021/06/17 08:28:39;;;;;;;4.20;1.85;;;;;;;25.70;41.48;100731.83;1817543;77;20886;-84
2021/06/17 08:31:05;;;;;;;7.00;1.70;;;;;;;25.71;40.76;100737.50;1807468;76;21143;-81
2021/06/17 08:33:33;;;;;;;6.93;2.20;;;;;;;25.79;41.60;100734.94;1810543;78;25259;-80
2021/06/17 08:36:00;;;;;;;5.55;1.90;;;;;;;25.90;41.43;100737.30;1786421;78;21026;-81
2021/06/17 08:38:26;;;;;;;4.95;1.75;;;;;;;25.97;40.74;100743.38;1814144;78;21060;-83
2021/06/17 08:40:51;;;;;;;4.50;1.73;;;;;;;26.10;40.97;100744.46;1772273;78;21075;-82
2021/06/17 08:43:17;;;;;;;4.97;2.00;;;;;;;26.13;40.89;100744.48;1763737;79;21146;-81
2021/06/17 08:45:43;;;;;;;9.30;1.85;;;;;;;26.26;40.32;100742.01;1762698;79;20893;-82
2021/06/17 08:48:12;;;;;;;3.98;1.70;;;;;;;26.35;40.97;100740.50;1759806;79;21088;-84
2021/06/17 08:50:38;;;;;;;3.87;2.10;;;;;;;26.41;40.21;100739.52;1761803;79;21036;-79
2021/06/17 08:53:04;;;;;;;6.00;1.90;;;;;;;26.37;39.77;100746.51;1769062;79;21344;-82
2021/06/17 08:55:30;;;;;;;4.53;2.00;;;;;;;26.37;40.49;100745.67;1764818;79;21244;-83
2021/06/17 08:57:57;;;;;;;7.22;1.95;;;;;;;26.41;40.42;100744.92;1766468;79;21042;-83
2021/06/17 09:00:31;;;;;;;7.03;1.70;;;;;;;26.48;39.62;100748.84;1770643;79;21036;-81
2021/06/17 09:03:18;;;;;;;3.92;1.75;;;;;;;26.43;39.42;100726.56;1780738;79;21374;-83
2021/06/17 09:05:50;;;;;;;4.10;1.40;;;;;;;26.43;39.42;100726.56;1764439;79;21592;-83
2021/06/17 09:08:26;;;;;;;3.60;1.70;;;;;;;26.56;39.96;100742.19;1755535;80;21226;-79
2021/06/17 09:10:52;;;;;;;3.25;1.62;;;;;;;26.55;39.92;100737.83;1769123;79;27209;-80
2021/06/17 09:13:18;;;;;;;4.10;1.70;;;;;;;26.53;40.07;100737.27;1750868;79;20910;-83
2021/06/17 09:15:52;;;;;;;2.98;1.60;;;;;;;26.60;39.44;100735.19;1760617;79;20880;-81
2021/06/17 09:18:30;;;;;;;4.35;1.80;;;;;;;26.44;38.97;100736.31;1746333;79;21601;-79
2021/06/17 09:21:08;;;;;;;43.60;12.13;;;;;;;26.44;38.97;100736.31;1766570;79;21253;-81
2021/06/17 09:23:36;;;;;;;6.83;2.60;;;;;;;26.51;39.76;100744.28;1776874;78;21521;-79
2021/06/17 09:26:19;;;;;;;3.75;1.47;;;;;;;26.48;38.52;100738.82;1759056;79;21051;-80
2021/06/17 09:28:59;;;;;;;4.15;1.60;;;;;;;26.44;37.78;100729.54;1764905;79;21074;-81
2021/06/17 09:31:26;;;;;;;3.58;1.57;;;;;;;26.53;36.44;100748.10;1763211;79;20898;-82
2021/06/17 09:33:52;;;;;;;3.62;1.65;;;;;;;26.57;35.82;100738.39;1769647;79;21830;-80
2021/06/17 09:36:28;;;;;;;3.67;1.60;;;;;;;26.56;36.25;100746.25;1760521;79;21284;-79
2021/06/17 09:38:58;;;;;;;3.80;1.60;;;;;;;26.65;36.37;100742.05;1765096;79;21777;-78
2021/06/17 09:41:44;;;;;;;9.48;1.45;;;;;;;26.67;35.91;100748.06;1741542;80;21332;-80
2021/06/17 09:44:30;;;;;;;4.47;1.85;;;;;;;26.61;36.46;100746.31;1757451;78;21064;-78
2021/06/17 09:47:15;;;;;;;3.98;1.65;;;;;;;26.74;36.46;100747.88;1717163;81;21159;-79
2021/06/17 09:49:42;;;;;;;4.37;1.55;;;;;;;26.84;36.54;100755.61;1746539;81;21072;-80
2021/06/17 09:52:09;;;;;;;4.35;1.45;;;;;;;26.77;35.17;100745.51;1746557;80;28226;-82
2021/06/17 09:54:38;;;;;;;;;;;;;;;26.76;35.62;100745.22;1719305;81;21151;-80
2021/06/17 09:57:06;;;;;;;4.72;1.50;;;;;;;26.87;35.35;100746.98;1718100;81;20247;-80
2021/06/17 09:59:51;;;;;;;2.50;1.30;;;;;;;26.91;35.68;100746.48;1740955;81;22021;-85
2021/06/17 10:02:31;;;;;;;6.92;1.62;;;;;;;26.95;35.48;100748.98;1733105;81;21155;-80
2021/06/17 10:05:22;;;;;;;2.45;1.60;;;;;;;26.99;35.49;100739.30;1724793;81;21112;-78
2021/06/17 10:07:48;;;;;;;2.83;1.52;;;;;;;26.92;34.14;100735.94;1738612;80;21578;-78
2021/06/17 10:10:18;;;;;;;4.67;1.70;;;;;;;27.00;35.02;100728.72;1734736;81;37420;-79
2021/06/17 10:12:44;;;;;;;5.05;1.60;;;;;;;27.05;34.94;100730.16;1723168;80;21174;-80
2021/06/17 10:15:10;;;;;;;2.33;1.30;;;;;;;27.00;34.41;100720.59;1769580;77;20955;-81
2021/06/17 10:17:36;;;;;;;2.95;1.60;;;;;;;27.03;34.53;100717.38;1765340;79;21180;-79
2021/06/17 10:20:05;;;;;;;3.62;1.40;;;;;;;27.02;35.31;100719.82;1760277;78;20865;-79
2021/06/17 10:22:37;;;;;;;6.87;2.10;;;;;;;27.05;36.10;100713.89;1818991;76;21080;-78
2021/06/17 10:25:03;;;;;;;4.00;1.60;;;;;;;27.07;35.75;100716.35;1817603;78;20961;-80
2021/06/17 10:27:41;;;;;;;3.60;1.45;;;;;;;27.10;35.32;100719.37;1780064;78;21311;-79
2021/06/17 10:30:08;;;;;;;3.55;1.57;;;;;;;27.20;35.33;100726.25;1775140;80;21070;-79
2021/06/17 10:32:40;;;;;;;;;;;;;;;27.19;35.47;100720.56;1747117;80;21074;-77
2021/06/17 10:35:07;;;;;;;5.17;1.72;;;;;;;27.25;35.37;100728.20;1769494;80;20279;-79
2021/06/17 10:37:34;;;;;;;4.42;1.35;;;;;;;27.31;35.40;100722.31;1780408;78;22037;-79
2021/06/17 10:40:08;;;;;;;3.98;1.60;;;;;;;27.42;35.65;100721.37;1756000;79;21021;-79
2021/06/17 10:42:45;;;;;;;4.40;2.05;;;;;;;27.50;35.42;100726.37;1776007;79;21099;-80
2021/06/17 10:45:40;;;;;;;4.53;1.60;;;;;;;27.54;35.13;100726.66;1760616;78;21026;-79
2021/06/17 10:48:13;;;;;;;5.60;1.42;;;;;;;27.54;34.50;100716.62;1746789;79;21069;-78
2021/06/17 10:50:53;;;;;;;2.72;1.22;;;;;;;27.58;34.20;100710.97;1750001;79;21189;-80
2021/06/17 10:53:24;;;;;;;3.85;1.52;;;;;;;27.60;34.02;100705.84;1739471;80;21027;-82
2021/06/17 10:56:02;;;;;;;2.83;1.60;;;;;;;27.62;35.00;100706.39;1734373;80;21268;-78
2021/06/17 10:58:50;;;;;;;3.87;1.45;;;;;;;27.66;34.89;100702.10;1756678;78;21287;-80
2021/06/17 11:01:33;;;;;;;4.05;1.25;;;;;;;27.80;34.36;100701.95;1764461;79;21527;-78
2021/06/17 11:04:17;;;;;;;3.83;1.50;;;;;;;27.83;33.94;100702.80;1774703;79;21895;-78
2021/06/17 11:06:55;;;;;;;3.20;1.52;;;;;;;28.03;34.13;100704.06;1724872;79;21211;-78
2021/06/17 11:09:48;;;;;;;3.33;1.57;;;;;;;27.98;32.28;100702.67;1761448;79;21031;-79
2021/06/17 11:12:24;;;;;;;2.85;1.60;;;;;;;28.08;33.07;100700.05;1744163;79;21089;-80
2021/06/17 11:14:57;;;;;;;4.67;1.50;;;;;;;28.16;32.50;100703.62;1736446;82;21647;-79
2021/06/17 11:17:35;;;;;;;3.40;1.40;;;;;;;28.27;32.87;100700.45;1725877;81;21144;-79
2021/06/17 11:20:21;;;;;;;3.45;1.30;;;;;;;28.30;32.76;100710.24;1724089;81;20998;-80
2021/06/17 11:22:48;;;;;;;4.33;1.32;;;;;;;28.40;32.54;100697.81;1738890;82;21058;-79
2021/06/17 11:25:21;;;;;;;3.65;1.30;;;;;;;28.43;31.47;100689.97;1730105;82;21155;-78
2021/06/17 11:28:12;;;;;;;5.97;1.67;;;;;;;28.43;31.36;100686.42;1734216;82;21061;-80
2021/06/17 11:30:49;;;;;;;2.85;1.32;;;;;;;28.44;31.56;100691.59;1728805;81;21407;-78
2021/06/17 11:33:22;;;;;;;6.13;1.50;;;;;;;28.52;31.74;100684.84;1715951;82;21030;-80
2021/06/17 11:36:00;;;;;;;5.83;1.50;;;;;;;28.56;30.97;100685.96;1725347;82;21312;-79
2021/06/17 11:38:32;;;;;;;3.22;1.47;;;;;;;28.51;31.22;100687.83;1728028;81;21009;-80